Lundy Sentinel — 2IGM8 — position and weather

sailwx.info

Track history (hours):
 
Tides and Currents Weather Stations Pressure Air Temp Water Temp Dewpoint Dewpoint Depression Visibility Wind Speed Wind Dir Waves Ship Positions

Lundy Sentinel

Last reported at 2018-Aug-13 14:28 UTC. Time now 2018-Aug-14 19:28 UTC.
Position N 36°29' E 014°02'.

Length 61 m; draft 4.4 m.

Type: Ship. MMSI: 235109552.

Date/timePositionNaut miles runAvg speedWind from/ knotsBaromVisibWave heightAir tempDewpointWater temp
2018-Aug-13 14:28N 36°29' E 014°02'0 0.1
2018-Aug-13 13:59N 36°29' E 014°02'15 7.5
2018-Aug-13 12:00N 36°36' E 014°18'13 8.8
2018-Aug-13 10:30N 36°30' E 014°33'5 9.1
2018-Aug-13 10:00N 36°29' E 014°38'5 9.2
2018-Aug-13 09:30N 36°27' E 014°43'1 1.3
2018-Aug-13 09:00N 36°28' E 014°43'5 9.9
2018-Aug-13 08:29N 36°26' E 014°49'510.0
2018-Aug-13 08:00N 36°25' E 014°55'15 9.7
2018-Aug-13 06:29N 36°20' E 015°12'  
2018-Aug-09 19:58N 36°10' E 015°12'4 7.5
2018-Aug-09 19:30N 36°06' E 015°12'4 7.5
2018-Aug-09 19:00N 36°02' E 015°11'5 7.5
2018-Aug-09 18:21N 35°58' E 015°10'3 7.6
2018-Aug-09 18:00N 35°55' E 015°09'4 7.5
2018-Aug-09 17:29N 35°52' E 015°07'5 7.7
2018-Aug-09 16:53N 35°47' E 015°05'3 7.4
2018-Aug-09 16:30N 35°44' E 015°04'3 5.9
2018-Aug-09 16:00N 35°42' E 015°03'4 8.0
2018-Aug-09 15:31N 35°38' E 015°02'4 7.9
2018-Aug-09 15:00N 35°34' E 014°60'19 7.2
2018-Aug-09 12:22N 35°24' E 014°40'2 6.1
2018-Aug-09 12:00N 35°22' E 014°38'3 5.7
2018-Aug-09 11:28N 35°21' E 014°34'1 2.9
2018-Aug-09 11:00N 35°22' E 014°33'3 6.6
2018-Aug-09 10:30N 35°22' E 014°29'5 6.5
2018-Aug-09 09:43N 35°23' E 014°23'4 7.7
2018-Aug-09 09:09N 35°24' E 014°17'1 9.7
2018-Aug-09 09:00N 35°24' E 014°16'23 9.3
2018-Aug-09 06:30N 35°35' E 013°51'  
2018-Aug-06 12:42N 36°47' E 012°56'4 7.2
2018-Aug-06 12:08N 36°47' E 012°51'1 6.6
2018-Aug-06 11:57N 36°48' E 012°50'3 6.6
2018-Aug-06 11:30N 36°48' E 012°46'3 6.6
2018-Aug-06 11:00N 36°49' E 012°42'3 6.3
2018-Aug-06 10:28N 36°49' E 012°38'  
2018-Aug-03 15:24N 37°10' E 013°07'0 1.0
2018-Aug-03 15:00N 37°10' E 013°07'1 1.1
2018-Aug-03 14:29N 37°10' E 013°06'  
Track history (hours):
 
Tides and Currents Weather Stations Pressure Air Temp Water Temp Dewpoint Dewpoint Depression Visibility Wind Speed Wind Dir Waves Ship Positions

Lundy Sentinel

Last reported at 2018-Aug-13 14:28 UTC. Time now 2018-Aug-14 19:28 UTC.
Position N 36°29' E 014°02'.

Length 61 m; draft 4.4 m.

Type: Ship. MMSI: 235109552.

Date/timePositionNaut miles runAvg speedWind from/ knotsBaromVisibWave heightAir tempDewpointWater temp
2018-Aug-13 14:28N 36°29' E 014°02'0 0.1
2018-Aug-13 13:59N 36°29' E 014°02'15 7.5
2018-Aug-13 12:00N 36°36' E 014°18'13 8.8
2018-Aug-13 10:30N 36°30' E 014°33'5 9.1
2018-Aug-13 10:00N 36°29' E 014°38'5 9.2
2018-Aug-13 09:30N 36°27' E 014°43'1 1.3
2018-Aug-13 09:00N 36°28' E 014°43'5 9.9
2018-Aug-13 08:29N 36°26' E 014°49'510.0
2018-Aug-13 08:00N 36°25' E 014°55'15 9.7
2018-Aug-13 06:29N 36°20' E 015°12'  
2018-Aug-09 19:58N 36°10' E 015°12'4 7.5
2018-Aug-09 19:30N 36°06' E 015°12'4 7.5
2018-Aug-09 19:00N 36°02' E 015°11'5 7.5
2018-Aug-09 18:21N 35°58' E 015°10'3 7.6
2018-Aug-09 18:00N 35°55' E 015°09'4 7.5
2018-Aug-09 17:29N 35°52' E 015°07'5 7.7
2018-Aug-09 16:53N 35°47' E 015°05'3 7.4
2018-Aug-09 16:30N 35°44' E 015°04'3 5.9
2018-Aug-09 16:00N 35°42' E 015°03'4 8.0
2018-Aug-09 15:31N 35°38' E 015°02'4 7.9
2018-Aug-09 15:00N 35°34' E 014°60'19 7.2
2018-Aug-09 12:22N 35°24' E 014°40'2 6.1
2018-Aug-09 12:00N 35°22' E 014°38'3 5.7
2018-Aug-09 11:28N 35°21' E 014°34'1 2.9
2018-Aug-09 11:00N 35°22' E 014°33'3 6.6
2018-Aug-09 10:30N 35°22' E 014°29'5 6.5
2018-Aug-09 09:43N 35°23' E 014°23'4 7.7
2018-Aug-09 09:09N 35°24' E 014°17'1 9.7
2018-Aug-09 09:00N 35°24' E 014°16'23 9.3
2018-Aug-09 06:30N 35°35' E 013°51'  
2018-Aug-06 12:42N 36°47' E 012°56'4 7.2
2018-Aug-06 12:08N 36°47' E 012°51'1 6.6
2018-Aug-06 11:57N 36°48' E 012°50'3 6.6
2018-Aug-06 11:30N 36°48' E 012°46'3 6.6
2018-Aug-06 11:00N 36°49' E 012°42'3 6.3
2018-Aug-06 10:28N 36°49' E 012°38'  
2018-Aug-03 15:24N 37°10' E 013°07'0 1.0
2018-Aug-03 15:00N 37°10' E 013°07'1 1.1
2018-Aug-03 14:29N 37°10' E 013°06'  

Dump ship's entire track history